Time;durP1;ratioP1;P1;durP2;ratioP2;P2;SDS_P1;SDS_P2;PMS_P1;PMS_P2;Temp;Humidity;BMP_temperature;BMP_pressure;BME280_temperature;BME280_humidity;BME280_pressure;Samples;Min_cycle;Max_cycle;Signal;HPM_P1;HPM_P2
2022/10/24 00:02:19;;;;;;;6.72;1.58;;;15.10;99.90;;;;;;5109863;28;20044;-91
2022/10/24 00:04:45;;;;;;;4.28;1.50;;;15.10;99.90;;;;;;5106853;28;20040;-92
2022/10/24 00:07:15;;;;;;;5.85;1.50;;;15.10;99.90;;;;;;5110361;28;20092;-94
2022/10/24 00:09:41;;;;;;;6.28;1.67;;;15.10;99.90;;;;;;5108426;28;20055;-91
2022/10/24 00:12:07;;;;;;;9.23;1.90;;;15.10;99.90;;;;;;5091497;28;20035;-92
2022/10/24 00:14:34;;;;;;;8.93;1.98;;;15.10;99.90;;;;;;5109696;28;20044;-93
2022/10/24 00:17:00;;;;;;;9.07;1.58;;;15.10;99.90;;;;;;5090943;28;20106;-93
2022/10/24 00:19:26;;;;;;;3.92;1.63;;;15.10;99.90;;;;;;5093684;28;20043;-91
2022/10/24 00:21:51;;;;;;;5.43;1.33;;;15.10;99.90;;;;;;5110851;28;20042;-91
2022/10/24 00:24:18;;;;;;;4.05;1.55;;;15.10;99.90;;;;;;5062172;28;20093;-93
2022/10/24 00:26:43;;;;;;;3.58;1.30;;;15.10;99.90;;;;;;5073840;28;20576;-92
2022/10/24 00:29:10;;;;;;;5.32;1.23;;;15.00;99.90;;;;;;5091338;28;20093;-92
2022/10/24 00:31:36;;;;;;;7.05;1.70;;;15.00;99.90;;;;;;5091630;28;20201;-93
2022/10/24 00:34:03;;;;;;;5.70;1.60;;;15.30;99.90;;;;;;5090344;28;20073;-93
2022/10/24 00:36:29;;;;;;;4.28;1.08;;;14.90;99.90;;;;;;5091772;28;20410;-92
2022/10/24 00:38:55;;;;;;;8.93;2.03;;;14.90;99.90;;;;;;5107021;28;20035;-92
2022/10/24 00:41:25;;;;;;;4.50;1.20;;;14.80;99.90;;;;;;5091625;28;20050;-91
2022/10/24 00:44:19;;;;;;;3.90;1.15;;;14.80;99.90;;;;;;5089455;28;20043;-92
2022/10/24 00:47:15;;;;;;;7.15;1.52;;;14.80;99.90;;;;;;5107994;28;20048;-92
2022/10/24 00:50:00;;;;;;;6.40;1.25;;;14.80;99.90;;;;;;5108927;28;20046;-92
2022/10/24 00:52:34;;;;;;;4.13;1.60;;;14.80;99.90;;;;;;5105967;28;20044;-93
2022/10/24 00:55:03;;;;;;;6.75;1.20;;;14.80;99.90;;;;;;5073838;28;20047;-91
2022/10/24 00:57:47;;;;;;;7.25;1.50;;;14.80;99.90;;;;;;5090413;28;20036;-91
2022/10/24 01:00:18;;;;;;;5.38;1.02;;;14.80;99.90;;;;;;5106162;28;20050;-92
2022/10/24 01:02:44;;;;;;;6.65;1.23;;;14.80;99.90;;;;;;5108644;28;20485;-92
2022/10/24 01:05:11;;;;;;;3.83;0.90;;;14.80;99.90;;;;;;5071383;28;20065;-92
2022/10/24 01:08:16;;;;;;;5.65;1.15;;;15.60;99.90;;;;;;5091502;28;20386;-91
2022/10/24 01:11:13;;;;;;;8.88;1.60;;;14.80;99.90;;;;;;5096515;28;20052;-91
2022/10/24 01:14:01;;;;;;;5.40;1.00;;;14.90;99.90;;;;;;5104227;28;20059;-92
2022/10/24 01:16:35;;;;;;;2.28;0.88;;;14.90;99.90;;;;;;5107428;28;20040;-92
2022/10/24 01:19:16;;;;;;;5.47;1.10;;;14.90;99.90;;;;;;5107746;28;20051;-92
2022/10/24 01:21:47;;;;;;;7.85;1.10;;;14.60;99.90;;;;;;5106059;28;20402;-92
2022/10/24 01:24:34;;;;;;;3.75;1.17;;;14.80;99.90;;;;;;5091202;28;20043;-92
2022/10/24 01:27:11;;;;;;;6.68;1.23;;;14.80;99.90;;;;;;5088734;28;20055;-93
2022/10/24 01:29:46;;;;;;;5.05;0.80;;;14.80;99.90;;;;;;5106816;28;20035;-92
2022/10/24 01:32:27;;;;;;;8.55;1.50;;;14.80;99.90;;;;;;5108324;28;20441;-92
2022/10/24 01:34:59;;;;;;;2.72;1.05;;;14.80;99.90;;;;;;5087742;28;20044;-92
2022/10/24 01:38:03;;;;;;;8.40;1.20;;;14.80;99.90;;;;;;5091747;28;20160;-92
2022/10/24 01:41:15;;;;;;;3.47;1.25;;;14.80;99.90;;;;;;5090091;28;20052;-92
2022/10/24 01:43:47;;;;;;;2.03;1.02;;;14.80;99.90;;;;;;5101688;28;20056;-92
2022/10/24 01:46:18;;;;;;;5.60;0.90;;;14.90;99.90;;;;;;5107462;28;20498;-92
2022/10/24 01:48:52;;;;;;;4.10;0.90;;;14.90;99.90;;;;;;5073300;28;20101;-91
2022/10/24 01:51:23;;;;;;;10.80;1.55;;;14.90;99.90;;;;;;5106382;28;20075;-92
2022/10/24 01:53:50;;;;;;;17.30;1.50;;;14.90;99.90;;;;;;5090402;28;20044;-91
2022/10/24 01:56:15;;;;;;;10.82;3.83;;;15.00;99.90;;;;;;5072330;28;20055;-92
2022/10/24 01:58:41;;;;;;;7.43;1.73;;;15.00;99.90;;;;;;5107806;28;20044;-92
2022/10/24 02:01:16;;;;;;;6.22;1.27;;;15.00;99.90;;;;;;5106152;28;20128;-92
2022/10/24 02:03:50;;;;;;;4.83;1.53;;;15.50;99.90;;;;;;5110048;28;20070;-92
2022/10/24 02:06:22;;;;;;;8.32;1.67;;;15.10;99.90;;;;;;5113855;28;20043;-92
2022/10/24 02:08:53;;;;;;;10.10;1.87;;;15.20;99.90;;;;;;5118589;28;20130;-92
2022/10/24 02:11:18;;;;;;;4.55;1.30;;;15.20;99.90;;;;;;5123967;28;20050;-92
2022/10/24 02:13:58;;;;;;;4.63;1.48;;;15.20;99.90;;;;;;5102251;28;20052;-92
2022/10/24 02:16:24;;;;;;;7.47;1.77;;;15.20;99.90;;;;;;5118695;28;20035;-93
2022/10/24 02:18:53;;;;;;;7.57;1.40;;;15.20;99.90;;;;;;5081674;28;20128;-91
2022/10/24 02:21:48;;;;;;;5.78;1.80;;;15.30;99.90;;;;;;5111100;28;20036;-90
2022/10/24 02:24:22;;;;;;;5.85;2.00;;;15.30;99.90;;;;;;5100595;28;20046;-90
2022/10/24 02:26:52;;;;;;;4.72;1.67;;;15.30;99.90;;;;;;5095010;28;20047;-92
2022/10/24 02:29:28;;;;;;;10.23;1.98;;;15.30;99.90;;;;;;5132636;28;20032;-91
2022/10/24 02:31:57;;;;;;;3.88;1.60;;;15.40;99.90;;;;;;5117098;28;20027;-93
2022/10/24 02:34:27;;;;;;;7.93;1.27;;;15.30;99.90;;;;;;5134740;28;20035;-93
2022/10/24 02:36:56;;;;;;;4.05;1.25;;;15.30;99.90;;;;;;5136026;28;20023;-94
2022/10/24 02:39:22;;;;;;;8.80;1.73;;;15.70;99.90;;;;;;5133622;28;20046;-91
2022/10/24 02:41:50;;;;;;;11.65;2.70;;;15.00;99.90;;;;;;5136194;28;20032;-90
2022/10/24 02:44:18;;;;;;;6.38;1.80;;;15.40;99.90;;;;;;5133678;28;20028;-92
2022/10/24 02:46:45;;;;;;;5.55;1.67;;;15.40;99.90;;;;;;5118490;28;20540;-92
2022/10/24 02:49:12;;;;;;;8.32;2.13;;;15.40;99.90;;;;;;5134747;28;20099;-91
2022/10/24 02:51:41;;;;;;;6.25;1.55;;;15.40;99.90;;;;;;5116974;28;20048;-92
2022/10/24 02:54:07;;;;;;;7.15;1.55;;;15.30;99.90;;;;;;5118093;28;20111;-91
2022/10/24 02:56:34;;;;;;;6.45;1.65;;;15.40;99.90;;;;;;5098379;28;20028;-90
2022/10/24 02:59:00;;;;;;;4.53;1.63;;;15.30;99.90;;;;;;5085237;28;20500;-92
2022/10/24 03:01:25;;;;;;;4.55;1.45;;;15.30;99.90;;;;;;5114885;28;20054;-91
2022/10/24 03:03:51;;;;;;;13.20;1.52;;;15.40;99.90;;;;;;5116901;28;20048;-92
2022/10/24 03:06:17;;;;;;;6.20;1.23;;;15.50;99.90;;;;;;5115619;28;20066;-93
2022/10/24 03:08:42;;;;;;;6.90;1.42;;;15.60;99.90;;;;;;5079946;28;20131;-92
2022/10/24 03:11:08;;;;;;;7.07;1.80;;;15.30;99.90;;;;;;5113592;28;20556;-93
2022/10/24 03:13:34;;;;;;;11.70;1.77;;;15.40;99.90;;;;;;5110294;28;20044;-93
2022/10/24 03:15:59;;;;;;;3.58;1.13;;;15.40;99.90;;;;;;5095291;28;20035;-92
2022/10/24 03:18:25;;;;;;;9.52;1.48;;;15.40;99.90;;;;;;5092798;28;20096;-91
2022/10/24 03:20:52;;;;;;;5.53;1.30;;;15.40;99.90;;;;;;5110652;28;20407;-92
2022/10/24 03:23:18;;;;;;;9.20;1.90;;;15.40;99.90;;;;;;5075666;28;20039;-92
2022/10/24 03:25:44;;;;;;;3.90;1.27;;;15.50;99.90;;;;;;5075374;28;20039;-94
2022/10/24 03:28:10;;;;;;;10.25;1.73;;;15.50;99.90;;;;;;5093035;28;20126;-91
2022/10/24 03:30:36;;;;;;;7.40;2.65;;;15.50;99.90;;;;;;5091881;28;20173;-93
2022/10/24 03:33:01;;;;;;;5.65;1.40;;;15.50;99.90;;;;;;5076841;28;20036;-91
2022/10/24 03:35:27;;;;;;;9.00;1.73;;;16.00;99.90;;;;;;5107735;28;20044;-93
2022/10/24 03:37:53;;;;;;;6.80;1.70;;;15.50;99.90;;;;;;5059838;28;20039;-91
2022/10/24 03:40:18;;;;;;;8.15;1.70;;;15.60;99.90;;;;;;5090861;28;20051;-92
2022/10/24 03:42:44;;;;;;;6.40;1.05;;;15.50;99.90;;;;;;5092095;28;20544;-93
2022/10/24 03:45:10;;;;;;;5.63;1.30;;;15.60;99.90;;;;;;5092529;28;20040;-92
2022/10/24 03:47:36;;;;;;;6.15;1.45;;;15.60;99.90;;;;;;5091657;28;20042;-92
2022/10/24 03:50:02;;;;;;;9.00;2.40;;;15.60;99.90;;;;;;5093151;28;20387;-93
2022/10/24 03:52:28;;;;;;;9.90;1.33;;;15.60;99.90;;;;;;5089947;28;20035;-89
2022/10/24 03:54:54;;;;;;;10.82;2.33;;;15.70;99.90;;;;;;5092991;28;20090;-90
2022/10/24 03:57:20;;;;;;;8.40;2.10;;;15.70;99.90;;;;;;5091740;28;20498;-90
2022/10/24 03:59:45;;;;;;;11.35;1.50;;;15.70;99.90;;;;;;5092180;28;20054;-92
2022/10/24 04:02:12;;;;;;;13.18;2.55;;;16.60;99.90;;;;;;5075063;28;20039;-92
2022/10/24 04:04:38;;;;;;;5.40;1.50;;;15.70;99.90;;;;;;5096258;28;20371;-93
2022/10/24 04:07:04;;;;;;;8.93;1.58;;;15.90;99.90;;;;;;5101603;28;20050;-90
2022/10/24 04:09:32;;;;;;;7.03;1.88;;;15.70;99.90;;;;;;5085372;28;20036;-89
2022/10/24 04:12:02;;;;;;;7.47;1.50;;;15.70;99.90;;;;;;5122099;28;20099;-91
2022/10/24 04:14:28;;;;;;;9.73;1.75;;;15.70;99.90;;;;;;5120150;28;20051;-90
2022/10/24 04:16:54;;;;;;;5.07;1.45;;;15.70;99.90;;;;;;5121568;28;20047;-93
2022/10/24 04:19:19;;;;;;;8.60;1.42;;;15.70;99.90;;;;;;5041506;28;20041;-91
2022/10/24 04:21:46;;;;;;;6.68;1.45;;;15.70;99.90;;;;;;5020862;28;20045;-92
2022/10/24 04:24:13;;;;;;;7.78;1.90;;;15.60;99.90;;;;;;5025703;28;20112;-91
2022/10/24 04:26:39;;;;;;;6.72;1.45;;;15.60;99.90;;;;;;5039460;28;20045;-91
2022/10/24 04:29:04;;;;;;;5.43;1.67;;;15.50;99.90;;;;;;5039992;28;20044;-89
2022/10/24 04:31:30;;;;;;;6.82;1.65;;;15.50;99.90;;;;;;5038401;28;20040;-89
2022/10/24 04:33:56;;;;;;;6.50;1.67;;;15.40;99.90;;;;;;5022348;28;20040;-91
2022/10/24 04:36:22;;;;;;;8.50;1.35;;;15.40;99.90;;;;;;5022351;28;20087;-91
2022/10/24 04:38:51;;;;;;;10.80;1.95;;;15.60;99.90;;;;;;5040410;28;20040;-92
2022/10/24 04:41:17;;;;;;;10.57;1.63;;;15.30;99.90;;;;;;5041241;28;20079;-91
2022/10/24 04:43:42;;;;;;;11.95;1.73;;;15.40;99.90;;;;;;5041404;28;20048;-88
2022/10/24 04:46:08;;;;;;;5.72;1.60;;;15.30;99.90;;;;;;5021544;28;20127;-89
2022/10/24 04:48:34;;;;;;;6.65;1.30;;;15.20;99.90;;;;;;5004748;28;20517;-90
2022/10/24 04:51:00;;;;;;;10.18;1.85;;;15.20;99.90;;;;;;5071561;28;20044;-92
2022/10/24 04:53:26;;;;;;;6.35;1.55;;;15.20;99.90;;;;;;5069892;28;20052;-89
2022/10/24 04:55:52;;;;;;;5.20;1.50;;;15.20;99.90;;;;;;5027849;28;20048;-95
2022/10/24 04:58:17;;;;;;;7.75;1.63;;;15.10;99.90;;;;;;5078863;28;20046;-87
2022/10/24 05:00:47;;;;;;;6.13;1.48;;;15.10;99.90;;;;;;5073874;28;20065;-93
2022/10/24 05:03:13;;;;;;;4.40;1.25;;;15.30;99.90;;;;;;5059295;28;20090;-95
2022/10/24 05:05:39;;;;;;;6.53;1.50;;;15.10;99.90;;;;;;5075575;28;20051;-94
2022/10/24 05:08:04;;;;;;;6.28;1.73;;;15.10;99.90;;;;;;5092973;28;20050;-95
2022/10/24 05:10:30;;;;;;;9.13;1.95;;;14.70;99.90;;;;;;5075829;28;20051;-95
2022/10/24 05:12:56;;;;;;;11.18;1.38;;;15.00;99.90;;;;;;5108119;28;20046;-94
2022/10/24 05:15:22;;;;;;;4.03;1.20;;;15.00;99.90;;;;;;5109525;28;20070;-92
2022/10/24 05:17:47;;;;;;;9.15;1.45;;;15.00;99.90;;;;;;5091388;28;20103;-91
2022/10/24 05:20:13;;;;;;;5.13;1.20;;;15.20;99.90;;;;;;5058068;28;20057;-91
2022/10/24 05:22:40;;;;;;;6.72;1.88;;;15.20;99.90;;;;;;5091062;28;20138;-95
2022/10/24 05:25:07;;;;;;;4.30;1.30;;;14.10;99.90;;;;;;5096012;28;20040;-95
2022/10/24 05:27:32;;;;;;;11.32;1.50;;;15.00;99.90;;;;;;5110111;28;20074;-88
2022/10/24 05:29:58;;;;;;;9.18;1.55;;;14.90;99.90;;;;;;5091930;28;20047;-91
2022/10/24 05:32:25;;;;;;;5.65;2.10;;;15.00;99.90;;;;;;5109262;28;20039;-90
2022/10/24 05:34:50;;;;;;;5.55;1.45;;;14.90;99.90;;;;;;5092627;28;20043;-90
2022/10/24 05:37:17;;;;;;;5.15;1.25;;;15.30;99.90;;;;;;5075739;28;20050;-90
2022/10/24 05:39:42;;;;;;;4.50;1.23;;;14.90;99.90;;;;;;5089003;28;20085;-90
2022/10/24 05:42:09;;;;;;;4.70;1.30;;;14.90;99.90;;;;;;5056900;28;20044;-89
2022/10/24 05:44:35;;;;;;;9.68;1.30;;;14.80;99.90;;;;;;5055918;28;20047;-91
2022/10/24 05:47:01;;;;;;;6.68;1.10;;;14.80;99.90;;;;;;5072603;28;20040;-91
2022/10/24 05:49:27;;;;;;;10.88;1.40;;;14.80;99.90;;;;;;5090302;28;20062;-91
2022/10/24 05:51:52;;;;;;;13.20;1.92;;;14.80;99.90;;;;;;5088961;28;20474;-91
2022/10/24 05:54:18;;;;;;;9.32;2.33;;;14.80;99.90;;;;;;5073569;28;20051;-90
2022/10/24 05:56:44;;;;;;;5.75;1.17;;;15.10;99.90;;;;;;5105383;28;20051;-95
2022/10/24 05:59:10;;;;;;;7.68;1.60;;;14.80;99.90;;;;;;5114843;28;20065;-95
2022/10/24 06:01:35;;;;;;;3.80;1.20;;;14.80;99.90;;;;;;5096593;28;20132;-95
2022/10/24 06:04:01;;;;;;;4.30;1.05;;;14.80;99.90;;;;;;5116212;28;20043;-96
2022/10/24 06:06:34;;;;;;;9.77;1.50;;;14.90;99.90;;;;;;5099504;28;20044;-95
2022/10/24 06:08:59;;;;;;;8.27;1.80;;;14.90;99.90;;;;;;5115502;28;20066;-95
2022/10/24 06:11:25;;;;;;;6.65;1.27;;;14.90;99.90;;;;;;5094401;28;20047;-93
2022/10/24 06:13:51;;;;;;;6.78;1.20;;;15.80;99.90;;;;;;5098894;28;20492;-94
2022/10/24 06:16:17;;;;;;;7.57;1.10;;;15.10;99.90;;;;;;5118960;28;20074;-95
2022/10/24 06:18:42;;;;;;;9.07;1.38;;;15.40;99.90;;;;;;5114811;28;20040;-95
2022/10/24 06:21:12;;;;;;;4.60;1.27;;;15.00;99.90;;;;;;5114706;28;20216;-95
2022/10/24 06:23:38;;;;;;;5.18;1.40;;;15.60;99.90;;;;;;5107712;28;20043;-90
2022/10/24 06:26:08;;;;;;;7.90;1.40;;;15.00;99.90;;;;;;5108502;28;20043;-91
2022/10/24 06:28:34;;;;;;;12.23;1.40;;;14.90;99.90;;;;;;5089109;28;20082;-94
2022/10/24 06:31:02;;;;;;;3.50;1.52;;;14.90;99.90;;;;;;5091441;28;20075;-92
2022/10/24 06:33:28;;;;;;;4.13;1.10;;;14.90;99.90;;;;;;5107324;28;20044;-93
2022/10/24 06:35:54;;;;;;;9.80;1.10;;;15.30;99.90;;;;;;5107215;28;20664;-92
2022/10/24 06:38:19;;;;;;;6.50;1.60;;;14.90;99.90;;;;;;5091553;28;20036;-93
2022/10/24 06:40:45;;;;;;;9.48;1.02;;;14.90;99.90;;;;;;5089879;28;20127;-94
2022/10/24 06:43:11;;;;;;;5.95;1.00;;;14.90;99.90;;;;;;5108909;28;20478;-91
2022/10/24 06:45:37;;;;;;;9.48;1.48;;;14.90;99.90;;;;;;5089426;28;20528;-92
2022/10/24 06:48:03;;;;;;;11.95;1.67;;;14.90;99.90;;;;;;5108570;28;20470;-90
2022/10/24 06:50:28;;;;;;;12.40;1.25;;;15.00;99.90;;;;;;5089821;28;20047;-90
2022/10/24 06:52:54;;;;;;;11.25;0.90;;;15.00;99.90;;;;;;5090953;28;20113;-91
2022/10/24 06:55:20;;;;;;;4.65;1.92;;;15.00;99.90;;;;;;5110987;28;20496;-89
2022/10/24 06:57:46;;;;;;;9.20;1.88;;;15.10;99.90;;;;;;5092854;28;20062;-92
2022/10/24 07:00:13;;;;;;;6.82;1.38;;;15.20;99.90;;;;;;5111606;28;20044;-92
2022/10/24 07:02:39;;;;;;;14.75;1.15;;;14.70;99.90;;;;;;5108599;28;20053;-92
2022/10/24 07:05:08;;;;;;;3.30;0.73;;;15.30;99.90;;;;;;5095018;28;20401;-92
2022/10/24 07:07:33;;;;;;;6.90;1.20;;;15.30;99.90;;;;;;5093908;28;20028;-93
2022/10/24 07:09:59;;;;;;;8.80;1.50;;;15.40;99.90;;;;;;5096121;28;20062;-93
2022/10/24 07:12:26;;;;;;;13.70;1.30;;;15.40;99.90;;;;;;5095643;28;20134;-94
2022/10/24 07:14:52;;;;;;;8.68;1.27;;;15.40;99.90;;;;;;5094946;28;20048;-93
2022/10/24 07:17:18;;;;;;;5.70;0.98;;;15.50;99.90;;;;;;5120816;28;20039;-93
2022/10/24 07:19:54;;;;;;;10.38;1.90;;;15.60;99.90;;;;;;5125838;28;20036;-92
2022/10/24 07:22:20;;;;;;;7.45;1.15;;;15.60;99.90;;;;;;5128325;28;20065;-93
2022/10/24 07:24:50;;;;;;;3.08;0.68;;;15.60;99.90;;;;;;5110626;28;20032;-93
2022/10/24 07:27:16;;;;;;;10.68;1.10;;;15.60;99.90;;;;;;5110258;28;20048;-93
2022/10/24 07:29:41;;;;;;;4.93;1.33;;;15.60;99.90;;;;;;5088375;28;20483;-92
2022/10/24 07:32:07;;;;;;;7.82;1.25;;;15.60;99.90;;;;;;5112221;28;20155;-93
2022/10/24 07:34:34;;;;;;;7.03;0.70;;;15.70;99.90;;;;;;5112526;28;20039;-93
2022/10/24 07:36:59;;;;;;;6.38;1.20;;;16.70;99.90;;;;;;5093638;28;20176;-93
2022/10/24 07:39:25;;;;;;;5.50;0.98;;;15.80;99.90;;;;;;5096881;28;20053;-94
2022/10/24 07:41:51;;;;;;;11.20;1.25;;;15.90;99.90;;;;;;5094311;28;20126;-93
2022/10/24 07:44:16;;;;;;;8.95;1.15;;;16.00;99.90;;;;;;5081771;28;20035;-91
2022/10/24 07:46:42;;;;;;;10.80;1.42;;;16.40;99.90;;;;;;5081640;28;20040;-94
2022/10/24 07:49:09;;;;;;;9.15;1.27;;;16.10;99.90;;;;;;5099583;28;20524;-94
2022/10/24 07:51:35;;;;;;;10.15;1.13;;;16.20;99.90;;;;;;5086708;28;20184;-94
2022/10/24 07:54:00;;;;;;;10.07;0.90;;;16.20;99.90;;;;;;5085204;28;20052;-94
2022/10/24 07:56:26;;;;;;;8.60;1.38;;;16.20;99.90;;;;;;5071345;28;20075;-94
2022/10/24 07:58:53;;;;;;;6.03;1.08;;;16.20;99.90;;;;;;5118765;28;20036;-93
2022/10/24 08:01:22;;;;;;;4.65;0.85;;;16.20;99.90;;;;;;5088831;28;20047;-93
2022/10/24 08:03:48;;;;;;;3.70;0.82;;;16.20;99.90;;;;;;5118431;28;20106;-95
2022/10/24 08:06:17;;;;;;;9.93;1.73;;;16.20;99.90;;;;;;5111321;28;20082;-94
2022/10/24 08:08:43;;;;;;;6.70;1.23;;;16.20;99.90;;;;;;5112103;28;20039;-92
2022/10/24 08:11:15;;;;;;;8.13;1.75;;;16.20;99.90;;;;;;5092227;28;20055;-93
2022/10/24 08:13:41;;;;;;;6.93;1.00;;;16.30;99.90;;;;;;5110810;28;20054;-94
2022/10/24 08:16:09;;;;;;;11.45;1.70;;;16.30;99.90;;;;;;5107377;28;20391;-93
2022/10/24 08:18:35;;;;;;;10.95;1.83;;;16.30;99.90;;;;;;5110235;28;20133;-93
2022/10/24 08:21:04;;;;;;;8.70;1.30;;;16.30;99.90;;;;;;5074222;28;20078;-92
2022/10/24 08:23:30;;;;;;;6.38;1.58;;;16.40;99.90;;;;;;5108223;28;20544;-93
2022/10/24 08:25:56;;;;;;;8.43;1.55;;;16.50;99.90;;;;;;5109160;28;20134;-93
2022/10/24 08:28:22;;;;;;;9.60;1.40;;;16.60;99.90;;;;;;5089738;28;20463;-93
2022/10/24 08:31:00;;;;;;;7.18;1.20;;;16.60;99.90;;;;;;5110119;28;20040;-94
2022/10/24 08:33:26;;;;;;;8.15;1.65;;;16.60;99.90;;;;;;5089762;28;20088;-92
2022/10/24 08:35:59;;;;;;;7.32;0.93;;;16.50;99.90;;;;;;5092909;28;20035;-93
2022/10/24 08:38:26;;;;;;;9.32;1.27;;;16.60;99.90;;;;;;5108649;28;20043;-95
2022/10/24 08:40:51;;;;;;;9.32;1.58;;;16.60;99.90;;;;;;5074502;28;20111;-94
2022/10/24 08:43:18;;;;;;;8.88;1.23;;;16.60;99.90;;;;;;5092472;28;20086;-94
2022/10/24 08:46:00;;;;;;;12.90;1.55;;;16.60;99.90;;;;;;5106801;28;20518;-93
2022/10/24 08:48:30;;;;;;;7.63;1.10;;;16.50;99.90;;;;;;5109506;28;20061;-93
2022/10/24 08:51:27;;;;;;;7.70;1.25;;;16.50;99.90;;;;;;5107174;28;20044;-94
2022/10/24 08:53:56;;;;;;;5.60;1.30;;;16.60;99.90;;;;;;5085052;28;20047;-95
2022/10/24 08:56:23;;;;;;;5.88;1.15;;;17.30;99.90;;;;;;5109081;28;20101;-95
2022/10/24 08:58:50;;;;;;;6.95;0.80;;;16.70;99.90;;;;;;5089749;28;20058;-94
2022/10/24 09:01:34;;;;;;;7.00;0.90;;;16.70;99.90;;;;;;5075648;28;20142;-95
2022/10/24 09:04:06;;;;;;;7.95;0.98;;;16.70;99.90;;;;;;5087551;28;20105;-95
2022/10/24 09:06:32;;;;;;;7.75;1.45;;;16.70;99.90;;;;;;5090430;28;20083;-94
2022/10/24 09:09:03;;;;;;;8.13;0.75;;;16.80;99.90;;;;;;5109001;28;20094;-92
2022/10/24 09:11:52;;;;;;;11.00;1.00;;;16.80;99.90;;;;;;5106572;28;20079;-94
2022/10/24 09:14:25;;;;;;;5.18;0.80;;;16.90;99.90;;;;;;5109640;28;20052;-94
2022/10/24 09:17:10;;;;;;;9.43;1.55;;;16.90;99.90;;;;;;5089103;28;20047;-94
2022/10/24 09:19:36;;;;;;;3.55;0.98;;;16.80;99.90;;;;;;5094992;28;20107;-96
2022/10/24 09:22:02;;;;;;;6.30;1.30;;;16.80;99.90;;;;;;5112335;28;20048;-96
2022/10/24 09:25:00;;;;;;;12.10;1.33;;;16.70;99.90;;;;;;5122822;28;20115;-96
2022/10/24 09:27:29;;;;;;;9.18;1.17;;;16.60;99.90;;;;;;5130316;28;20086;-95
2022/10/24 09:29:56;;;;;;;7.38;1.13;;;16.50;99.90;;;;;;5129169;28;20478;-96
2022/10/24 09:32:29;;;;;;;9.35;1.17;;;16.50;99.90;;;;;;5104280;28;20549;-94
2022/10/24 09:35:03;;;;;;;8.43;1.15;;;16.50;99.90;;;;;;5127343;28;20047;-96
2022/10/24 09:37:42;;;;;;;8.93;1.30;;;16.50;99.90;;;;;;5112521;28;20063;-96
2022/10/24 09:40:17;;;;;;;4.88;0.50;;;16.60;99.90;;;;;;5127753;28;20055;-95
2022/10/24 09:43:08;;;;;;;7.30;1.70;;;16.70;99.90;;;;;;5132131;28;20108;-96
2022/10/24 09:45:40;;;;;;;8.65;0.98;;;16.80;99.90;;;;;;5089071;28;20024;-96
2022/10/24 09:48:29;;;;;;;6.80;1.33;;;17.00;99.90;;;;;;5096820;28;20047;-96
2022/10/24 09:50:57;;;;;;;11.05;1.10;;;17.10;99.90;;;;;;5095630;28;20057;-96
2022/10/24 09:53:32;;;;;;;8.38;0.90;;;17.10;99.90;;;;;;5106572;28;20133;-96
2022/10/24 09:56:11;;;;;;;6.47;1.15;;;17.20;99.90;;;;;;5113362;28;20063;-95
2022/10/24 09:58:37;;;;;;;8.10;1.05;;;17.10;99.90;;;;;;5114223;28;20040;-96
2022/10/24 10:01:18;;;;;;;9.68;0.95;;;17.20;99.90;;;;;;5094195;28;20061;-95
2022/10/24 10:04:00;;;;;;;6.78;1.00;;;17.20;99.90;;;;;;5129655;28;20434;-96
2022/10/24 10:06:26;;;;;;;9.63;1.48;;;17.40;99.90;;;;;;5109858;28;20149;-96
2022/10/24 10:08:56;;;;;;;6.10;1.08;;;17.40;99.90;;;;;;5094894;28;20040;-96
2022/10/24 10:11:31;;;;;;;9.43;1.10;;;17.40;99.90;;;;;;5095785;28;20118;-96
2022/10/24 10:14:00;;;;;;;9.55;1.88;;;17.30;99.90;;;;;;5115149;28;20044;-96
2022/10/24 10:16:44;;;;;;;6.40;1.50;;;17.20;99.90;;;;;;5099535;28;20047;-95
2022/10/24 10:19:20;;;;;;;16.63;1.02;;;17.10;99.90;;;;;;5082945;28;20044;-96
2022/10/24 10:22:19;;;;;;;4.95;0.93;;;17.00;99.90;;;;;;5097004;28;20071;-95
2022/10/24 10:24:45;;;;;;;5.05;0.80;;;17.00;99.90;;;;;;5108955;28;20031;-96
2022/10/24 10:27:34;;;;;;;10.93;1.77;;;17.10;99.90;;;;;;5106252;28;20039;-93
2022/10/24 10:30:15;;;;;;;6.65;1.33;;;17.20;99.90;;;;;;5095013;28;20093;-92
2022/10/24 10:33:05;;;;;;;5.65;1.33;;;17.10;99.90;;;;;;5075028;28;20048;-91
2022/10/24 10:35:41;;;;;;;8.20;0.93;;;17.10;99.90;;;;;;5077007;28;20577;-94
2022/10/24 10:38:32;;;;;;;9.80;1.40;;;17.00;99.90;;;;;;5078338;28;20064;-93
2022/10/24 10:41:38;;;;;;;6.80;1.23;;;16.90;99.90;;;;;;5092520;28;20531;-92
2022/10/24 10:44:16;;;;;;;12.30;1.23;;;16.90;99.90;;;;;;5093481;28;20092;-90
2022/10/24 10:47:07;;;;;;;4.97;0.98;;;16.70;99.90;;;;;;5114434;28;20048;-91
2022/10/24 10:49:40;;;;;;;6.05;1.17;;;16.60;99.90;;;;;;5079048;28;20039;-91
2022/10/24 10:52:13;;;;;;;8.70;1.25;;;16.50;99.90;;;;;;5096917;28;20048;-92
2022/10/24 10:55:09;;;;;;;6.18;0.90;;;16.40;99.90;;;;;;5075826;28;20057;-92
2022/10/24 10:58:05;;;;;;;10.55;1.10;;;16.30;99.90;;;;;;5075126;28;20043;-92
2022/10/24 11:00:43;;;;;;;10.57;1.27;;;16.20;99.90;;;;;;5095777;28;20051;-92
2022/10/24 11:03:42;;;;;;;8.07;1.88;;;16.00;99.90;;;;;;5093041;28;20050;-93
2022/10/24 11:06:44;;;;;;;10.18;1.10;;;16.00;99.90;;;;;;5091369;28;20624;-92
2022/10/24 11:09:25;;;;;;;10.55;2.40;;;16.10;99.90;;;;;;5062929;28;20096;-93
2022/10/24 11:12:10;;;;;;;8.57;1.48;;;16.20;99.90;;;;;;5075180;28;20036;-92
2022/10/24 11:14:41;;;;;;;5.15;1.05;;;16.40;99.90;;;;;;5092367;28;20040;-93
2022/10/24 11:17:22;;;;;;;8.40;1.35;;;16.50;99.90;;;;;;5093649;28;20040;-93
2022/10/24 11:20:05;;;;;;;4.80;1.50;;;16.60;99.90;;;;;;5074254;28;20039;-93
2022/10/24 11:22:41;;;;;;;6.35;1.00;;;16.70;99.90;;;;;;5093120;28;20414;-92
2022/10/24 11:25:45;;;;;;;9.48;1.02;;;16.70;99.90;;;;;;5075351;28;20054;-92
2022/10/24 11:28:45;;;;;;;6.60;0.90;;;16.80;99.90;;;;;;5068854;28;20057;-93
2022/10/24 11:31:16;;;;;;;8.50;1.00;;;16.30;99.90;;;;;;5093274;28;20079;-90
2022/10/24 11:33:58;;;;;;;8.98;1.27;;;16.80;99.90;;;;;;5076415;28;20109;-93
2022/10/24 11:36:39;;;;;;;8.07;1.35;;;16.80;99.90;;;;;;5091281;28;20496;-92
2022/10/24 11:39:10;;;;;;;10.43;1.30;;;16.70;99.90;;;;;;5093055;28;20502;-92
2022/10/24 11:41:41;;;;;;;11.25;1.40;;;16.70;99.90;;;;;;5090554;28;20498;-93
2022/10/24 11:44:50;;;;;;;5.32;0.90;;;16.80;99.90;;;;;;5075593;28;20046;-93
2022/10/24 11:47:24;;;;;;;7.43;1.83;;;16.80;99.90;;;;;;5013881;28;20056;-93
2022/10/24 11:50:04;;;;;;;11.15;1.00;;;16.70;99.90;;;;;;5091145;28;20402;-91
2022/10/24 11:52:38;;;;;;;4.85;1.00;;;16.60;99.90;;;;;;5077423;28;20050;-92
2022/10/24 11:55:07;;;;;;;11.43;0.93;;;16.60;99.90;;;;;;5094083;28;20054;-93
2022/10/24 11:57:34;;;;;;;13.88;1.33;;;16.60;99.90;;;;;;5075824;28;20191;-93
2022/10/24 12:00:01;;;;;;;15.25;1.77;;;16.80;99.90;;;;;;5079456;28;20058;-93
2022/10/24 12:03:13;;;;;;;8.63;1.48;;;16.60;99.90;;;;;;5124731;28;20040;-93
2022/10/24 12:05:57;;;;;;;5.72;1.25;;;16.60;99.90;;;;;;4989012;28;20046;-90
2022/10/24 12:08:27;;;;;;;9.73;1.02;;;16.60;99.90;;;;;;5011791;28;20034;-92
2022/10/24 12:11:24;;;;;;;10.43;1.00;;;16.60;99.90;;;;;;5065976;28;20052;-94
2022/10/24 12:14:21;;;;;;;10.88;1.05;;;16.60;99.90;;;;;;5083449;28;20049;-93
2022/10/24 12:17:21;;;;;;;8.15;1.55;;;16.60;99.90;;;;;;5101471;28;20047;-96
2022/10/24 12:19:49;;;;;;;6.07;0.85;;;16.60;99.90;;;;;;5079328;28;20107;-93
2022/10/24 12:22:26;;;;;;;9.43;1.08;;;16.70;99.90;;;;;;5082811;28;20058;-93
2022/10/24 12:25:19;;;;;;;7.68;0.82;;;16.80;99.90;;;;;;5077643;28;20100;-92
2022/10/24 12:27:55;;;;;;;9.50;0.93;;;16.80;99.90;;;;;;5076165;28;20074;-93
2022/10/24 12:30:25;;;;;;;9.43;1.23;;;16.90;99.90;;;;;;5094073;28;20916;-92
2022/10/24 12:33:07;;;;;;;10.25;1.35;;;17.00;99.90;;;;;;5091024;28;20043;-92
2022/10/24 12:35:43;;;;;;;9.05;1.27;;;17.10;99.90;;;;;;5093841;28;20047;-94
2022/10/24 12:38:25;;;;;;;4.78;0.98;;;17.20;99.90;;;;;;5075767;28;20040;-95
2022/10/24 12:40:56;;;;;;;11.32;1.70;;;17.20;99.90;;;;;;5074674;28;20463;-92
2022/10/24 12:43:43;;;;;;;9.07;0.80;;;17.10;99.90;;;;;;5093467;28;20043;-92
2022/10/24 12:46:14;;;;;;;9.35;0.80;;;17.00;99.90;;;;;;5089868;28;20123;-93
2022/10/24 12:49:02;;;;;;;7.70;1.10;;;16.90;99.90;;;;;;5077138;28;20040;-93
2022/10/24 12:51:39;;;;;;;11.50;1.08;;;16.80;99.90;;;;;;5109237;28;20036;-90
2022/10/24 12:54:11;;;;;;;4.10;1.02;;;16.80;99.90;;;;;;5092841;28;20044;-90
2022/10/24 12:56:59;;;;;;;11.95;1.00;;;16.80;99.90;;;;;;5096247;28;20036;-92
2022/10/24 12:59:29;;;;;;;5.18;1.02;;;16.90;99.90;;;;;;5039322;28;20721;-90
2022/10/24 13:02:19;;;;;;;6.97;0.95;;;17.00;99.90;;;;;;5094406;28;20067;-92
2022/10/24 13:04:49;;;;;;;7.30;1.17;;;17.30;99.90;;;;;;5109982;28;20065;-85
2022/10/24 13:07:34;;;;;;;6.38;1.38;;;17.50;99.90;;;;;;5110163;28;20055;-87
2022/10/24 13:10:13;;;;;;;6.93;0.93;;;17.60;99.90;;;;;;5094804;28;20090;-86
2022/10/24 13:12:58;;;;;;;6.82;0.90;;;17.60;99.90;;;;;;5110690;28;20040;-87